sensor_id;sensor_type;location;lat;lon;timestamp;temperature;humidity
14995;DHT22;7593;49.006;8.372;2023-04-24T00:00:55;11.40;99.90
14995;DHT22;7593;49.006;8.372;2023-04-24T00:03:22;11.40;99.90
14995;DHT22;7593;49.006;8.372;2023-04-24T00:05:50;11.40;99.90
14995;DHT22;7593;49.006;8.372;2023-04-24T00:08:17;11.40;99.90
14995;DHT22;7593;49.006;8.372;2023-04-24T00:10:44;11.40;99.90
14995;DHT22;7593;49.006;8.372;2023-04-24T00:13:11;11.40;99.90
14995;DHT22;7593;49.006;8.372;2023-04-24T00:15:38;11.40;99.90
14995;DHT22;7593;49.006;8.372;2023-04-24T00:18:05;11.50;99.90
14995;DHT22;7593;49.006;8.372;2023-04-24T00:20:31;11.50;99.90
14995;DHT22;7593;49.006;8.372;2023-04-24T00:23:00;11.50;99.90
14995;DHT22;7593;49.006;8.372;2023-04-24T00:25:26;11.60;99.90
14995;DHT22;7593;49.006;8.372;2023-04-24T00:27:53;11.70;99.90
14995;DHT22;7593;49.006;8.372;2023-04-24T00:30:20;11.70;99.90
14995;DHT22;7593;49.006;8.372;2023-04-24T00:32:47;11.70;99.90
14995;DHT22;7593;49.006;8.372;2023-04-24T00:35:13;11.70;99.90
14995;DHT22;7593;49.006;8.372;2023-04-24T00:37:41;11.80;99.90
14995;DHT22;7593;49.006;8.372;2023-04-24T00:40:12;11.80;99.90
14995;DHT22;7593;49.006;8.372;2023-04-24T00:42:39;11.80;99.90
14995;DHT22;7593;49.006;8.372;2023-04-24T00:45:07;11.90;99.90
14995;DHT22;7593;49.006;8.372;2023-04-24T00:47:34;11.80;99.90
14995;DHT22;7593;49.006;8.372;2023-04-24T00:50:01;11.80;99.90
14995;DHT22;7593;49.006;8.372;2023-04-24T00:52:28;11.80;99.90
14995;DHT22;7593;49.006;8.372;2023-04-24T00:54:56;11.80;99.90
14995;DHT22;7593;49.006;8.372;2023-04-24T00:57:24;11.80;99.90
14995;DHT22;7593;49.006;8.372;2023-04-24T00:59:52;11.80;99.90
14995;DHT22;7593;49.006;8.372;2023-04-24T01:02:19;11.70;99.90
14995;DHT22;7593;49.006;8.372;2023-04-24T01:04:48;11.70;99.90
14995;DHT22;7593;49.006;8.372;2023-04-24T01:07:17;11.70;99.90
14995;DHT22;7593;49.006;8.372;2023-04-24T01:09:45;11.60;99.90
14995;DHT22;7593;49.006;8.372;2023-04-24T01:12:15;11.60;99.90
14995;DHT22;7593;49.006;8.372;2023-04-24T01:14:43;11.60;99.90
14995;DHT22;7593;49.006;8.372;2023-04-24T01:17:09;11.50;99.90
14995;DHT22;7593;49.006;8.372;2023-04-24T01:19:37;11.50;99.90
14995;DHT22;7593;49.006;8.372;2023-04-24T01:22:09;11.50;99.90
14995;DHT22;7593;49.006;8.372;2023-04-24T01:24:37;11.40;99.90
14995;DHT22;7593;49.006;8.372;2023-04-24T01:27:04;11.50;99.90
14995;DHT22;7593;49.006;8.372;2023-04-24T01:29:31;11.40;99.90
14995;DHT22;7593;49.006;8.372;2023-04-24T01:31:58;11.50;99.90
14995;DHT22;7593;49.006;8.372;2023-04-24T01:34:25;11.50;99.90
14995;DHT22;7593;49.006;8.372;2023-04-24T01:36:52;11.50;99.90
14995;DHT22;7593;49.006;8.372;2023-04-24T01:39:20;11.50;99.90
14995;DHT22;7593;49.006;8.372;2023-04-24T01:41:48;11.50;99.90
14995;DHT22;7593;49.006;8.372;2023-04-24T01:44:16;11.50;99.90
14995;DHT22;7593;49.006;8.372;2023-04-24T01:46:43;11.40;99.90
14995;DHT22;7593;49.006;8.372;2023-04-24T01:49:10;11.30;99.90
14995;DHT22;7593;49.006;8.372;2023-04-24T01:51:37;11.20;99.90
14995;DHT22;7593;49.006;8.372;2023-04-24T01:54:04;11.00;99.90
14995;DHT22;7593;49.006;8.372;2023-04-24T01:56:33;11.00;99.90
14995;DHT22;7593;49.006;8.372;2023-04-24T01:59:02;11.00;99.90
14995;DHT22;7593;49.006;8.372;2023-04-24T02:01:33;11.10;99.90
14995;DHT22;7593;49.006;8.372;2023-04-24T02:04:00;11.10;99.90
14995;DHT22;7593;49.006;8.372;2023-04-24T02:06:27;11.20;99.90
14995;DHT22;7593;49.006;8.372;2023-04-24T02:08:54;11.20;99.90
14995;DHT22;7593;49.006;8.372;2023-04-24T02:11:21;11.20;99.90
14995;DHT22;7593;49.006;8.372;2023-04-24T02:13:49;11.30;99.90
14995;DHT22;7593;49.006;8.372;2023-04-24T02:16:17;11.20;99.90
14995;DHT22;7593;49.006;8.372;2023-04-24T02:18:44;11.20;99.90
14995;DHT22;7593;49.006;8.372;2023-04-24T02:21:11;11.20;99.90
14995;DHT22;7593;49.006;8.372;2023-04-24T02:23:37;11.30;99.90
14995;DHT22;7593;49.006;8.372;2023-04-24T02:26:04;11.30;99.90
14995;DHT22;7593;49.006;8.372;2023-04-24T02:28:31;11.30;99.90
14995;DHT22;7593;49.006;8.372;2023-04-24T02:30:59;11.30;99.90
14995;DHT22;7593;49.006;8.372;2023-04-24T02:33:26;11.30;99.90
14995;DHT22;7593;49.006;8.372;2023-04-24T02:35:53;11.40;99.90
14995;DHT22;7593;49.006;8.372;2023-04-24T02:38:20;11.40;99.90
14995;DHT22;7593;49.006;8.372;2023-04-24T02:40:47;11.40;99.90
14995;DHT22;7593;49.006;8.372;2023-04-24T02:43:13;11.40;99.90
14995;DHT22;7593;49.006;8.372;2023-04-24T02:45:40;11.40;99.90
14995;DHT22;7593;49.006;8.372;2023-04-24T02:48:08;11.40;99.90
14995;DHT22;7593;49.006;8.372;2023-04-24T02:50:35;11.50;99.90
14995;DHT22;7593;49.006;8.372;2023-04-24T02:53:02;11.50;99.90
14995;DHT22;7593;49.006;8.372;2023-04-24T02:55:29;11.40;99.90
14995;DHT22;7593;49.006;8.372;2023-04-24T02:57:56;11.20;99.90
14995;DHT22;7593;49.006;8.372;2023-04-24T03:00:23;10.90;99.90
14995;DHT22;7593;49.006;8.372;2023-04-24T03:02:50;10.60;99.90
14995;DHT22;7593;49.006;8.372;2023-04-24T03:05:18;10.50;99.90
14995;DHT22;7593;49.006;8.372;2023-04-24T03:07:45;10.30;99.90
14995;DHT22;7593;49.006;8.372;2023-04-24T03:10:12;10.20;99.90
14995;DHT22;7593;49.006;8.372;2023-04-24T03:12:39;10.10;99.90
14995;DHT22;7593;49.006;8.372;2023-04-24T03:15:07;10.00;99.90
14995;DHT22;7593;49.006;8.372;2023-04-24T03:17:34;9.90;99.90
14995;DHT22;7593;49.006;8.372;2023-04-24T03:20:01;9.90;99.90
14995;DHT22;7593;49.006;8.372;2023-04-24T03:22:29;9.80;99.90
14995;DHT22;7593;49.006;8.372;2023-04-24T03:24:58;9.80;99.90
14995;DHT22;7593;49.006;8.372;2023-04-24T03:27:24;9.70;99.90
14995;DHT22;7593;49.006;8.372;2023-04-24T03:29:51;9.80;99.90
14995;DHT22;7593;49.006;8.372;2023-04-24T03:32:20;9.80;99.90
14995;DHT22;7593;49.006;8.372;2023-04-24T03:34:47;9.80;99.90
14995;DHT22;7593;49.006;8.372;2023-04-24T03:37:14;9.80;99.90
14995;DHT22;7593;49.006;8.372;2023-04-24T03:39:42;9.70;99.90
14995;DHT22;7593;49.006;8.372;2023-04-24T03:42:09;9.80;99.90
14995;DHT22;7593;49.006;8.372;2023-04-24T03:44:36;9.70;99.90
14995;DHT22;7593;49.006;8.372;2023-04-24T03:47:03;9.70;99.90
14995;DHT22;7593;49.006;8.372;2023-04-24T03:49:29;9.70;99.90
14995;DHT22;7593;49.006;8.372;2023-04-24T03:51:56;9.70;99.90
14995;DHT22;7593;49.006;8.372;2023-04-24T03:54:23;9.60;99.90
14995;DHT22;7593;49.006;8.372;2023-04-24T03:56:51;9.60;99.90
14995;DHT22;7593;49.006;8.372;2023-04-24T03:59:18;9.60;99.90
14995;DHT22;7593;49.006;8.372;2023-04-24T04:01:45;9.50;99.90
14995;DHT22;7593;49.006;8.372;2023-04-24T04:04:12;9.50;99.90
14995;DHT22;7593;49.006;8.372;2023-04-24T04:06:39;9.40;99.90
14995;DHT22;7593;49.006;8.372;2023-04-24T04:09:05;9.40;99.90
14995;DHT22;7593;49.006;8.372;2023-04-24T04:11:32;9.40;99.90
14995;DHT22;7593;49.006;8.372;2023-04-24T04:14:02;9.30;99.90
14995;DHT22;7593;49.006;8.372;2023-04-24T04:16:29;9.30;99.90
14995;DHT22;7593;49.006;8.372;2023-04-24T04:18:55;9.20;99.90
14995;DHT22;7593;49.006;8.372;2023-04-24T04:21:22;9.20;99.90
14995;DHT22;7593;49.006;8.372;2023-04-24T04:23:49;9.10;99.90
14995;DHT22;7593;49.006;8.372;2023-04-24T04:26:16;9.00;99.90
14995;DHT22;7593;49.006;8.372;2023-04-24T04:28:44;9.00;99.90
14995;DHT22;7593;49.006;8.372;2023-04-24T04:31:12;9.00;99.90
14995;DHT22;7593;49.006;8.372;2023-04-24T04:33:39;8.90;99.90
14995;DHT22;7593;49.006;8.372;2023-04-24T04:36:06;8.90;99.90
14995;DHT22;7593;49.006;8.372;2023-04-24T04:38:34;8.80;99.90
14995;DHT22;7593;49.006;8.372;2023-04-24T04:41:00;8.80;99.90
14995;DHT22;7593;49.006;8.372;2023-04-24T04:43:27;8.70;99.90
14995;DHT22;7593;49.006;8.372;2023-04-24T04:45:54;8.60;99.90
14995;DHT22;7593;49.006;8.372;2023-04-24T04:48:22;8.60;99.90
14995;DHT22;7593;49.006;8.372;2023-04-24T04:50:49;8.60;99.90
14995;DHT22;7593;49.006;8.372;2023-04-24T04:53:16;8.60;99.90
14995;DHT22;7593;49.006;8.372;2023-04-24T04:55:43;8.60;99.90
14995;DHT22;7593;49.006;8.372;2023-04-24T04:58:10;8.60;99.90
14995;DHT22;7593;49.006;8.372;2023-04-24T05:00:37;8.50;99.90
14995;DHT22;7593;49.006;8.372;2023-04-24T05:03:04;8.60;99.90
14995;DHT22;7593;49.006;8.372;2023-04-24T05:05:32;8.60;99.90
14995;DHT22;7593;49.006;8.372;2023-04-24T05:07:59;8.60;99.90
14995;DHT22;7593;49.006;8.372;2023-04-24T05:10:26;8.60;99.90
14995;DHT22;7593;49.006;8.372;2023-04-24T05:12:53;8.70;99.90
14995;DHT22;7593;49.006;8.372;2023-04-24T05:15:19;8.70;99.90
14995;DHT22;7593;49.006;8.372;2023-04-24T05:17:46;8.80;99.90
14995;DHT22;7593;49.006;8.372;2023-04-24T05:20:13;8.80;99.90
14995;DHT22;7593;49.006;8.372;2023-04-24T05:22:41;8.90;99.90
14995;DHT22;7593;49.006;8.372;2023-04-24T05:25:08;9.00;99.90
14995;DHT22;7593;49.006;8.372;2023-04-24T05:27:35;9.00;99.90
14995;DHT22;7593;49.006;8.372;2023-04-24T05:30:02;9.10;99.90
14995;DHT22;7593;49.006;8.372;2023-04-24T05:32:30;9.10;99.90
14995;DHT22;7593;49.006;8.372;2023-04-24T05:34:56;9.10;99.90
14995;DHT22;7593;49.006;8.372;2023-04-24T05:37:23;9.10;99.90
14995;DHT22;7593;49.006;8.372;2023-04-24T05:39:51;9.10;99.90
14995;DHT22;7593;49.006;8.372;2023-04-24T05:42:18;9.10;99.90
14995;DHT22;7593;49.006;8.372;2023-04-24T05:44:45;9.10;99.90
14995;DHT22;7593;49.006;8.372;2023-04-24T05:47:12;9.20;99.90
14995;DHT22;7593;49.006;8.372;2023-04-24T05:49:38;9.10;99.90
14995;DHT22;7593;49.006;8.372;2023-04-24T05:52:05;9.20;99.90
14995;DHT22;7593;49.006;8.372;2023-04-24T05:54:34;9.10;99.90
14995;DHT22;7593;49.006;8.372;2023-04-24T05:57:02;9.20;99.90
14995;DHT22;7593;49.006;8.372;2023-04-24T05:59:33;9.20;99.90
14995;DHT22;7593;49.006;8.372;2023-04-24T06:01:59;9.10;99.90
14995;DHT22;7593;49.006;8.372;2023-04-24T06:04:26;9.10;99.90
14995;DHT22;7593;49.006;8.372;2023-04-24T06:06:53;9.10;99.90
14995;DHT22;7593;49.006;8.372;2023-04-24T06:09:21;9.20;99.90
14995;DHT22;7593;49.006;8.372;2023-04-24T06:11:49;9.20;99.90
14995;DHT22;7593;49.006;8.372;2023-04-24T06:14:19;9.20;99.90
14995;DHT22;7593;49.006;8.372;2023-04-24T06:16:46;9.20;99.90
14995;DHT22;7593;49.006;8.372;2023-04-24T06:19:13;9.20;99.90
14995;DHT22;7593;49.006;8.372;2023-04-24T06:21:40;9.30;99.90
14995;DHT22;7593;49.006;8.372;2023-04-24T06:24:07;9.40;99.90
14995;DHT22;7593;49.006;8.372;2023-04-24T06:26:34;9.50;99.90
14995;DHT22;7593;49.006;8.372;2023-04-24T06:29:00;9.60;99.90
14995;DHT22;7593;49.006;8.372;2023-04-24T06:31:28;9.70;99.90
14995;DHT22;7593;49.006;8.372;2023-04-24T06:33:55;9.80;99.90
14995;DHT22;7593;49.006;8.372;2023-04-24T06:36:22;9.90;99.90
14995;DHT22;7593;49.006;8.372;2023-04-24T06:38:49;10.00;99.90
14995;DHT22;7593;49.006;8.372;2023-04-24T06:41:16;10.20;99.90
14995;DHT22;7593;49.006;8.372;2023-04-24T06:43:43;10.30;99.90
14995;DHT22;7593;49.006;8.372;2023-04-24T06:46:10;10.40;99.90
14995;DHT22;7593;49.006;8.372;2023-04-24T06:48:39;10.50;99.90
14995;DHT22;7593;49.006;8.372;2023-04-24T06:51:05;10.60;99.90
14995;DHT22;7593;49.006;8.372;2023-04-24T06:53:32;10.80;99.90
14995;DHT22;7593;49.006;8.372;2023-04-24T06:55:59;11.10;99.90
14995;DHT22;7593;49.006;8.372;2023-04-24T06:58:26;11.30;99.90
14995;DHT22;7593;49.006;8.372;2023-04-24T07:00:53;11.40;99.90
14995;DHT22;7593;49.006;8.372;2023-04-24T07:03:20;11.30;99.90
14995;DHT22;7593;49.006;8.372;2023-04-24T07:05:48;11.30;99.90
14995;DHT22;7593;49.006;8.372;2023-04-24T07:08:15;11.20;99.90
14995;DHT22;7593;49.006;8.372;2023-04-24T07:10:43;11.20;99.90
14995;DHT22;7593;49.006;8.372;2023-04-24T07:13:10;11.50;99.90
14995;DHT22;7593;49.006;8.372;2023-04-24T07:15:37;11.60;99.90
14995;DHT22;7593;49.006;8.372;2023-04-24T07:18:05;11.70;99.90
14995;DHT22;7593;49.006;8.372;2023-04-24T07:20:32;11.80;99.90
14995;DHT22;7593;49.006;8.372;2023-04-24T07:23:01;11.70;99.90
14995;DHT22;7593;49.006;8.372;2023-04-24T07:25:27;11.50;99.90
14995;DHT22;7593;49.006;8.372;2023-04-24T07:27:54;11.40;99.90
14995;DHT22;7593;49.006;8.372;2023-04-24T07:30:21;11.40;99.90
14995;DHT22;7593;49.006;8.372;2023-04-24T07:32:48;11.40;99.90
14995;DHT22;7593;49.006;8.372;2023-04-24T07:35:14;11.50;99.90
14995;DHT22;7593;49.006;8.372;2023-04-24T07:37:41;11.60;99.90
14995;DHT22;7593;49.006;8.372;2023-04-24T07:40:12;11.60;99.90
14995;DHT22;7593;49.006;8.372;2023-04-24T07:42:39;11.90;99.90
14995;DHT22;7593;49.006;8.372;2023-04-24T07:45:07;12.00;99.90
14995;DHT22;7593;49.006;8.372;2023-04-24T07:47:34;12.10;99.90
14995;DHT22;7593;49.006;8.372;2023-04-24T07:50:02;12.00;99.90
14995;DHT22;7593;49.006;8.372;2023-04-24T07:52:29;12.00;99.90
14995;DHT22;7593;49.006;8.372;2023-04-24T07:54:56;12.00;99.90
14995;DHT22;7593;49.006;8.372;2023-04-24T07:57:27;11.80;99.90
14995;DHT22;7593;49.006;8.372;2023-04-24T07:59:54;11.40;99.90
14995;DHT22;7593;49.006;8.372;2023-04-24T08:02:20;11.20;99.90
14995;DHT22;7593;49.006;8.372;2023-04-24T08:04:51;11.00;99.90
14995;DHT22;7593;49.006;8.372;2023-04-24T08:07:19;10.50;99.90
14995;DHT22;7593;49.006;8.372;2023-04-24T08:09:46;10.40;99.90
14995;DHT22;7593;49.006;8.372;2023-04-24T08:12:12;10.50;99.90
14995;DHT22;7593;49.006;8.372;2023-04-24T08:14:41;10.60;99.90
14995;DHT22;7593;49.006;8.372;2023-04-24T08:17:08;11.00;99.90
14995;DHT22;7593;49.006;8.372;2023-04-24T08:19:34;11.30;99.90
14995;DHT22;7593;49.006;8.372;2023-04-24T08:22:01;11.60;99.90
14995;DHT22;7593;49.006;8.372;2023-04-24T08:24:29;11.70;99.90
14995;DHT22;7593;49.006;8.372;2023-04-24T08:26:56;11.80;99.90
14995;DHT22;7593;49.006;8.372;2023-04-24T08:29:23;11.70;99.90
14995;DHT22;7593;49.006;8.372;2023-04-24T08:31:52;11.60;99.90
14995;DHT22;7593;49.006;8.372;2023-04-24T08:34:20;11.40;99.90
14995;DHT22;7593;49.006;8.372;2023-04-24T08:36:47;11.10;99.90
14995;DHT22;7593;49.006;8.372;2023-04-24T08:39:14;10.90;99.90
14995;DHT22;7593;49.006;8.372;2023-04-24T08:41:42;10.80;99.90
14995;DHT22;7593;49.006;8.372;2023-04-24T08:44:11;10.80;99.90
14995;DHT22;7593;49.006;8.372;2023-04-24T08:46:38;10.90;99.90
14995;DHT22;7593;49.006;8.372;2023-04-24T08:49:07;11.10;99.90
14995;DHT22;7593;49.006;8.372;2023-04-24T08:51:34;11.20;99.90
14995;DHT22;7593;49.006;8.372;2023-04-24T08:54:03;11.50;99.90
14995;DHT22;7593;49.006;8.372;2023-04-24T08:56:33;11.90;99.90
14995;DHT22;7593;49.006;8.372;2023-04-24T08:59:00;12.40;99.90
14995;DHT22;7593;49.006;8.372;2023-04-24T09:01:28;12.60;99.90
14995;DHT22;7593;49.006;8.372;2023-04-24T09:03:55;12.60;99.90
14995;DHT22;7593;49.006;8.372;2023-04-24T09:06:24;12.60;99.90
14995;DHT22;7593;49.006;8.372;2023-04-24T09:08:54;12.50;99.90
14995;DHT22;7593;49.006;8.372;2023-04-24T09:11:23;12.40;99.90
14995;DHT22;7593;49.006;8.372;2023-04-24T09:13:51;12.30;99.90
14995;DHT22;7593;49.006;8.372;2023-04-24T09:16:18;12.30;99.90
14995;DHT22;7593;49.006;8.372;2023-04-24T09:18:46;12.20;99.90
14995;DHT22;7593;49.006;8.372;2023-04-24T09:21:12;12.00;99.90
14995;DHT22;7593;49.006;8.372;2023-04-24T09:23:41;12.00;99.90
14995;DHT22;7593;49.006;8.372;2023-04-24T09:26:09;12.00;99.90
14995;DHT22;7593;49.006;8.372;2023-04-24T09:28:37;12.10;99.90
14995;DHT22;7593;49.006;8.372;2023-04-24T09:31:06;12.30;99.90
14995;DHT22;7593;49.006;8.372;2023-04-24T09:33:33;12.30;99.90
14995;DHT22;7593;49.006;8.372;2023-04-24T09:36:01;12.20;99.90
14995;DHT22;7593;49.006;8.372;2023-04-24T09:38:31;12.00;99.90
14995;DHT22;7593;49.006;8.372;2023-04-24T09:41:01;11.90;99.90
14995;DHT22;7593;49.006;8.372;2023-04-24T09:43:29;11.90;99.90
14995;DHT22;7593;49.006;8.372;2023-04-24T09:45:57;11.90;99.90
14995;DHT22;7593;49.006;8.372;2023-04-24T09:48:31;12.00;99.90
14995;DHT22;7593;49.006;8.372;2023-04-24T09:50:58;12.00;99.90
14995;DHT22;7593;49.006;8.372;2023-04-24T09:53:25;12.00;99.90
14995;DHT22;7593;49.006;8.372;2023-04-24T09:55:52;12.00;99.90
14995;DHT22;7593;49.006;8.372;2023-04-24T09:58:24;12.10;99.90
14995;DHT22;7593;49.006;8.372;2023-04-24T10:00:53;12.20;99.90
14995;DHT22;7593;49.006;8.372;2023-04-24T10:03:24;12.30;99.90
14995;DHT22;7593;49.006;8.372;2023-04-24T10:05:51;12.40;99.90
14995;DHT22;7593;49.006;8.372;2023-04-24T10:08:18;12.50;99.90
14995;DHT22;7593;49.006;8.372;2023-04-24T10:10:46;12.60;99.90
14995;DHT22;7593;49.006;8.372;2023-04-24T10:13:14;12.60;99.90
14995;DHT22;7593;49.006;8.372;2023-04-24T10:15:42;12.70;99.90
14995;DHT22;7593;49.006;8.372;2023-04-24T10:18:10;12.70;99.90
14995;DHT22;7593;49.006;8.372;2023-04-24T10:20:38;12.60;99.90
14995;DHT22;7593;49.006;8.372;2023-04-24T10:23:06;12.50;99.90
14995;DHT22;7593;49.006;8.372;2023-04-24T10:25:35;12.30;99.90
14995;DHT22;7593;49.006;8.372;2023-04-24T10:28:02;12.30;99.90
14995;DHT22;7593;49.006;8.372;2023-04-24T10:30:30;12.10;99.90
14995;DHT22;7593;49.006;8.372;2023-04-24T10:33:02;12.10;99.90
14995;DHT22;7593;49.006;8.372;2023-04-24T10:35:32;12.10;99.90
14995;DHT22;7593;49.006;8.372;2023-04-24T10:38:03;12.00;99.90
14995;DHT22;7593;49.006;8.372;2023-04-24T10:40:33;11.80;99.90
14995;DHT22;7593;49.006;8.372;2023-04-24T10:43:02;11.70;99.90
14995;DHT22;7593;49.006;8.372;2023-04-24T10:45:31;11.60;99.90
14995;DHT22;7593;49.006;8.372;2023-04-24T10:47:59;11.60;99.90
14995;DHT22;7593;49.006;8.372;2023-04-24T10:50:30;11.60;99.90
14995;DHT22;7593;49.006;8.372;2023-04-24T10:53:15;11.70;99.90
14995;DHT22;7593;49.006;8.372;2023-04-24T10:55:46;11.80;99.90
14995;DHT22;7593;49.006;8.372;2023-04-24T10:58:13;11.80;99.90
14995;DHT22;7593;49.006;8.372;2023-04-24T11:00:42;11.60;99.90
14995;DHT22;7593;49.006;8.372;2023-04-24T11:03:24;11.40;99.90
14995;DHT22;7593;49.006;8.372;2023-04-24T11:06:00;11.00;99.90
14995;DHT22;7593;49.006;8.372;2023-04-24T11:08:30;10.90;99.90
14995;DHT22;7593;49.006;8.372;2023-04-24T11:11:03;10.80;99.90
14995;DHT22;7593;49.006;8.372;2023-04-24T11:14:02;10.70;99.90
14995;DHT22;7593;49.006;8.372;2023-04-24T11:16:30;10.40;99.90
14995;DHT22;7593;49.006;8.372;2023-04-24T11:19:03;10.30;99.90
14995;DHT22;7593;49.006;8.372;2023-04-24T11:21:39;10.30;99.90
14995;DHT22;7593;49.006;8.372;2023-04-24T11:24:26;10.40;99.90
14995;DHT22;7593;49.006;8.372;2023-04-24T11:26:53;10.60;99.90
14995;DHT22;7593;49.006;8.372;2023-04-24T11:29:21;10.70;99.90
14995;DHT22;7593;49.006;8.372;2023-04-24T11:31:48;10.90;99.90
14995;DHT22;7593;49.006;8.372;2023-04-24T11:34:17;11.00;99.90
14995;DHT22;7593;49.006;8.372;2023-04-24T11:36:45;11.30;99.90
14995;DHT22;7593;49.006;8.372;2023-04-24T11:39:13;11.50;99.90
14995;DHT22;7593;49.006;8.372;2023-04-24T11:41:40;11.60;99.90
14995;DHT22;7593;49.006;8.372;2023-04-24T11:44:08;11.70;99.90
14995;DHT22;7593;49.006;8.372;2023-04-24T11:46:35;11.70;99.90
14995;DHT22;7593;49.006;8.372;2023-04-24T11:49:03;11.60;99.90
14995;DHT22;7593;49.006;8.372;2023-04-24T11:51:30;11.50;99.90
14995;DHT22;7593;49.006;8.372;2023-04-24T11:53:59;11.60;99.90
14995;DHT22;7593;49.006;8.372;2023-04-24T11:56:26;11.70;99.90
14995;DHT22;7593;49.006;8.372;2023-04-24T11:58:52;11.80;99.90
14995;DHT22;7593;49.006;8.372;2023-04-24T12:01:20;12.20;99.90
14995;DHT22;7593;49.006;8.372;2023-04-24T12:03:48;12.90;99.90
14995;DHT22;7593;49.006;8.372;2023-04-24T12:06:16;13.60;99.90
14995;DHT22;7593;49.006;8.372;2023-04-24T12:08:46;14.30;99.90
14995;DHT22;7593;49.006;8.372;2023-04-24T12:11:16;14.80;99.90
14995;DHT22;7593;49.006;8.372;2023-04-24T12:13:46;15.10;99.90
14995;DHT22;7593;49.006;8.372;2023-04-24T12:16:13;15.20;99.90
14995;DHT22;7593;49.006;8.372;2023-04-24T12:18:44;14.90;99.90
14995;DHT22;7593;49.006;8.372;2023-04-24T12:21:18;14.60;99.90
14995;DHT22;7593;49.006;8.372;2023-04-24T12:23:46;13.90;99.90
14995;DHT22;7593;49.006;8.372;2023-04-24T12:26:16;13.70;99.90
14995;DHT22;7593;49.006;8.372;2023-04-24T12:28:47;13.70;99.90
14995;DHT22;7593;49.006;8.372;2023-04-24T12:31:15;13.70;99.90
14995;DHT22;7593;49.006;8.372;2023-04-24T12:33:42;13.80;99.90
14995;DHT22;7593;49.006;8.372;2023-04-24T12:36:10;14.00;99.90
14995;DHT22;7593;49.006;8.372;2023-04-24T12:38:39;14.20;99.90
14995;DHT22;7593;49.006;8.372;2023-04-24T12:41:07;14.30;99.90
14995;DHT22;7593;49.006;8.372;2023-04-24T12:43:36;14.40;99.90
14995;DHT22;7593;49.006;8.372;2023-04-24T12:46:03;14.20;99.90
14995;DHT22;7593;49.006;8.372;2023-04-24T12:48:31;14.10;99.90
14995;DHT22;7593;49.006;8.372;2023-04-24T12:50:58;14.10;99.90
14995;DHT22;7593;49.006;8.372;2023-04-24T12:53:27;14.10;99.90
14995;DHT22;7593;49.006;8.372;2023-04-24T12:55:56;14.00;99.90
14995;DHT22;7593;49.006;8.372;2023-04-24T12:58:23;14.20;99.90
14995;DHT22;7593;49.006;8.372;2023-04-24T13:00:51;14.40;99.90
14995;DHT22;7593;49.006;8.372;2023-04-24T13:03:18;14.50;99.90
14995;DHT22;7593;49.006;8.372;2023-04-24T13:05:45;14.20;99.90
14995;DHT22;7593;49.006;8.372;2023-04-24T13:08:12;14.00;99.90
14995;DHT22;7593;49.006;8.372;2023-04-24T13:10:39;13.60;99.90
14995;DHT22;7593;49.006;8.372;2023-04-24T13:13:06;13.30;99.90
14995;DHT22;7593;49.006;8.372;2023-04-24T13:15:33;13.20;99.90
14995;DHT22;7593;49.006;8.372;2023-04-24T13:18:02;13.40;99.90
14995;DHT22;7593;49.006;8.372;2023-04-24T13:20:29;13.60;99.90
14995;DHT22;7593;49.006;8.372;2023-04-24T13:22:56;14.20;99.90
14995;DHT22;7593;49.006;8.372;2023-04-24T13:25:22;14.90;99.90
14995;DHT22;7593;49.006;8.372;2023-04-24T13:27:50;15.50;99.90
14995;DHT22;7593;49.006;8.372;2023-04-24T13:30:17;15.40;99.90
14995;DHT22;7593;49.006;8.372;2023-04-24T13:32:44;15.30;99.90
14995;DHT22;7593;49.006;8.372;2023-04-24T13:35:12;15.20;99.90
14995;DHT22;7593;49.006;8.372;2023-04-24T13:37:39;15.00;99.90
14995;DHT22;7593;49.006;8.372;2023-04-24T13:40:07;15.20;99.90
14995;DHT22;7593;49.006;8.372;2023-04-24T13:42:34;15.10;99.90
14995;DHT22;7593;49.006;8.372;2023-04-24T13:45:01;15.10;99.90
14995;DHT22;7593;49.006;8.372;2023-04-24T13:47:28;15.00;99.90
14995;DHT22;7593;49.006;8.372;2023-04-24T13:49:55;14.80;99.90
14995;DHT22;7593;49.006;8.372;2023-04-24T13:52:23;14.50;99.90
14995;DHT22;7593;49.006;8.372;2023-04-24T13:54:50;14.40;99.90
14995;DHT22;7593;49.006;8.372;2023-04-24T13:57:17;14.10;99.90
14995;DHT22;7593;49.006;8.372;2023-04-24T13:59:44;13.90;99.90
14995;DHT22;7593;49.006;8.372;2023-04-24T14:02:11;13.70;99.90
14995;DHT22;7593;49.006;8.372;2023-04-24T14:04:38;13.50;99.90
14995;DHT22;7593;49.006;8.372;2023-04-24T14:07:05;13.40;99.90
14995;DHT22;7593;49.006;8.372;2023-04-24T14:09:33;13.40;99.90
14995;DHT22;7593;49.006;8.372;2023-04-24T14:12:00;13.30;99.90
14995;DHT22;7593;49.006;8.372;2023-04-24T14:14:28;13.10;99.90
14995;DHT22;7593;49.006;8.372;2023-04-24T14:16:55;12.90;99.90
14995;DHT22;7593;49.006;8.372;2023-04-24T14:19:22;11.60;99.90
14995;DHT22;7593;49.006;8.372;2023-04-24T14:21:49;10.60;99.90
14995;DHT22;7593;49.006;8.372;2023-04-24T14:24:16;10.10;99.90
14995;DHT22;7593;49.006;8.372;2023-04-24T14:26:44;10.10;99.90
14995;DHT22;7593;49.006;8.372;2023-04-24T14:29:11;10.50;99.90
14995;DHT22;7593;49.006;8.372;2023-04-24T14:31:38;11.00;99.90
14995;DHT22;7593;49.006;8.372;2023-04-24T14:34:04;11.50;99.90
14995;DHT22;7593;49.006;8.372;2023-04-24T14:36:31;11.90;99.90
14995;DHT22;7593;49.006;8.372;2023-04-24T14:38:58;12.10;99.90
14995;DHT22;7593;49.006;8.372;2023-04-24T14:41:25;12.20;99.90
14995;DHT22;7593;49.006;8.372;2023-04-24T14:43:53;12.50;99.90
14995;DHT22;7593;49.006;8.372;2023-04-24T14:46:21;12.50;99.90
14995;DHT22;7593;49.006;8.372;2023-04-24T14:48:48;12.50;99.90
14995;DHT22;7593;49.006;8.372;2023-04-24T14:51:15;12.50;99.90
14995;DHT22;7593;49.006;8.372;2023-04-24T14:53:42;12.50;99.90
14995;DHT22;7593;49.006;8.372;2023-04-24T14:56:08;12.20;99.90
14995;DHT22;7593;49.006;8.372;2023-04-24T14:58:35;11.90;99.90
14995;DHT22;7593;49.006;8.372;2023-04-24T15:01:03;11.60;99.90
14995;DHT22;7593;49.006;8.372;2023-04-24T15:03:30;11.40;99.90
14995;DHT22;7593;49.006;8.372;2023-04-24T15:05:57;11.20;99.90
14995;DHT22;7593;49.006;8.372;2023-04-24T15:08:25;11.10;99.90
14995;DHT22;7593;49.006;8.372;2023-04-24T15:10:51;11.00;99.90
14995;DHT22;7593;49.006;8.372;2023-04-24T15:13:18;10.80;99.90
14995;DHT22;7593;49.006;8.372;2023-04-24T15:15:46;10.60;99.90
14995;DHT22;7593;49.006;8.372;2023-04-24T15:18:14;10.50;99.90
14995;DHT22;7593;49.006;8.372;2023-04-24T15:20:41;10.40;99.90
14995;DHT22;7593;49.006;8.372;2023-04-24T15:23:08;10.20;99.90
14995;DHT22;7593;49.006;8.372;2023-04-24T15:25:35;10.20;99.90
14995;DHT22;7593;49.006;8.372;2023-04-24T15:28:03;10.10;99.90
14995;DHT22;7593;49.006;8.372;2023-04-24T15:30:31;10.10;99.90
14995;DHT22;7593;49.006;8.372;2023-04-24T15:32:59;10.00;99.90
14995;DHT22;7593;49.006;8.372;2023-04-24T15:35:27;10.00;99.90
14995;DHT22;7593;49.006;8.372;2023-04-24T15:37:54;10.10;99.90
14995;DHT22;7593;49.006;8.372;2023-04-24T15:40:21;9.90;99.90
14995;DHT22;7593;49.006;8.372;2023-04-24T15:42:47;9.70;99.90
14995;DHT22;7593;49.006;8.372;2023-04-24T15:45:14;9.60;99.90
14995;DHT22;7593;49.006;8.372;2023-04-24T15:47:41;9.60;99.90
14995;DHT22;7593;49.006;8.372;2023-04-24T15:50:08;9.40;99.90
14995;DHT22;7593;49.006;8.372;2023-04-24T15:52:37;9.40;99.90